Knight, Indiana
Current Conditions -  °F | °C
As of 6:54 PM on Friday 28 Nov 2014 (Local Time) from KEVV Reporting Station
Clear Clear  
Wind Chill: 39°   Ceiling: Unl
Heat Index: 39°   Visibility: 10mi
Dew Point: 27°   Wind: 3mph
Humidity: 62%   Direction: 140°SE
Pressure: 30.09"   Gusts: NA
Location:  38.0153°N, 87.5343°W
Report Text: KEVV 290054Z 14003KT 10SM CLR 04/M03 A3009 RMK AO2 SLP193 T00391028
Loading
Personal Weather Stations






























Interactive Weather Map New forecast layout! Learn more

10-Day Weather Forecast

Advertisements
Track Severe Weather on mobile